Terminal Aerodrome Forecast
Issued by NWS

Home | Current Version | Previous Version | Text Only | Print | Product List | Glossary On
Versions: 1 2 3 4 5 6 7 8 9 10 11 12 13 14 15 16 17 18 19 20 21 22 23 24 25 26 27 28 29 30
000
FTUS41 KOKX 171100
TAFSWF
TAF
KSWF 171133Z 1712/1818 06008KT P6SM SCT250
     FM171400 09010KT P6SM SCT250
     FM171600 12013KT P6SM FEW040 SCT250
     FM180400 VRB04KT P6SM FEW030 SCT250
     FM181500 12006KT P6SM FEW030 BKN250
      AMD NOT SKED=

USA.gov is the U.S. government's official web portal to all federal, state and local government web resources and services.